createdAt,value
2019-01-18T00:01:43.153Z,1.67
2019-01-18T00:04:30.708Z,2.23
2019-01-18T00:07:17.802Z,1.63
2019-01-18T00:10:06.182Z,1.67
2019-01-18T00:12:53.342Z,1.77
2019-01-18T00:15:40.588Z,1.70
2019-01-18T00:18:27.919Z,1.60
2019-01-18T00:21:15.230Z,1.90
2019-01-18T00:24:02.190Z,2.03
2019-01-18T00:26:49.301Z,1.60
2019-01-18T00:29:36.449Z,1.90
2019-01-18T00:32:24.017Z,2.00
2019-01-18T00:35:11.528Z,1.93
2019-01-18T00:37:58.864Z,2.13
2019-01-18T00:40:46.301Z,1.83
2019-01-18T00:43:33.507Z,1.67
2019-01-18T00:46:20.797Z,1.37
2019-01-18T00:49:07.916Z,2.10
2019-01-18T00:51:55.042Z,1.77
2019-01-18T00:54:42.205Z,2.20
2019-01-18T00:57:29.850Z,2.40
2019-01-18T01:00:18.650Z,1.50
2019-01-18T01:03:05.626Z,1.70
2019-01-18T01:05:54.937Z,2.10
2019-01-18T01:08:44.448Z,2.03
2019-01-18T01:11:33.486Z,1.70
2019-01-18T01:14:26.185Z,2.33
2019-01-18T01:20:44.453Z,1.20
2019-01-18T01:23:38.243Z,1.27
2019-01-18T01:26:30.527Z,1.47
2019-01-18T01:29:42.941Z,1.20
2019-01-18T01:32:32.101Z,1.33
2019-01-18T01:35:24.868Z,1.50
2019-01-18T01:38:21.374Z,1.00
2019-01-18T01:41:13.314Z,1.03
2019-01-18T01:44:25.553Z,1.47
2019-01-18T01:55:48.991Z,1.70
2019-01-18T01:58:38.734Z,1.97
2019-01-18T02:01:28.251Z,1.70
2019-01-18T02:04:19.323Z,1.50
2019-01-18T02:07:12.859Z,2.10
2019-01-18T02:10:03.434Z,1.43
2019-01-18T02:12:51.655Z,2.00
2019-01-18T02:15:40.245Z,1.70
2019-01-18T02:18:28.670Z,1.30
2019-01-18T02:21:17.658Z,2.30
2019-01-18T02:24:08.217Z,2.07
2019-01-18T02:26:55.386Z,1.87
2019-01-18T02:29:43.247Z,2.33
2019-01-18T02:32:30.625Z,2.70
2019-01-18T02:35:18.465Z,1.80
2019-01-18T02:38:07.262Z,3.43
2019-01-18T02:40:54.775Z,2.37
2019-01-18T02:43:42.042Z,3.83
2019-01-18T02:46:29.645Z,2.40
2019-01-18T02:49:17.579Z,1.80
2019-01-18T02:52:04.775Z,2.50
2019-01-18T02:54:53.426Z,2.17
2019-01-18T02:57:42.544Z,3.10
2019-01-18T03:00:30.490Z,2.60
2019-01-18T03:03:18.281Z,2.80
2019-01-18T03:06:07.558Z,2.27
2019-01-18T03:08:55.909Z,2.90
2019-01-18T03:11:43.002Z,2.60
2019-01-18T03:14:30.107Z,3.00
2019-01-18T03:17:17.180Z,2.90
2019-01-18T03:20:05.022Z,2.53
2019-01-18T03:22:52.478Z,2.43
2019-01-18T03:25:39.836Z,2.90
2019-01-18T03:28:27.214Z,2.83
2019-01-18T03:31:14.364Z,2.50
2019-01-18T03:34:01.713Z,2.87
2019-01-18T03:36:48.902Z,2.70
2019-01-18T03:39:36.458Z,2.87
2019-01-18T03:42:23.958Z,3.10
2019-01-18T03:45:11.653Z,3.10
2019-01-18T03:47:58.855Z,2.53
2019-01-18T03:50:46.417Z,3.03
2019-01-18T03:53:33.669Z,3.50
2019-01-18T03:56:20.640Z,3.43
2019-01-18T03:59:08.102Z,2.97
2019-01-18T04:01:55.438Z,3.30
2019-01-18T04:04:42.839Z,3.27
2019-01-18T04:07:29.813Z,2.47
2019-01-18T04:10:17.565Z,2.37
2019-01-18T04:13:05.305Z,3.60
2019-01-18T04:15:52.587Z,3.40
2019-01-18T04:18:39.775Z,2.60
2019-01-18T04:21:27.772Z,2.83
2019-01-18T04:24:16.263Z,2.63
2019-01-18T04:27:03.212Z,2.80
2019-01-18T04:29:50.774Z,3.10
2019-01-18T04:32:37.815Z,2.90
2019-01-18T04:35:25.111Z,3.30
2019-01-18T04:38:12.369Z,2.40
2019-01-18T04:40:59.245Z,2.27
2019-01-18T04:43:46.074Z,3.43
2019-01-18T04:46:33.280Z,2.63
2019-01-18T04:49:20.690Z,3.10
2019-01-18T04:52:07.483Z,2.00
2019-01-18T04:54:54.959Z,3.50
2019-01-18T04:57:42.267Z,2.60
2019-01-18T05:00:30.104Z,2.80
2019-01-18T05:03:17.153Z,2.90
2019-01-18T05:06:04.476Z,2.60
2019-01-18T05:08:51.359Z,3.30
2019-01-18T05:11:38.436Z,3.00
2019-01-18T05:14:25.882Z,2.63
2019-01-18T05:17:13.067Z,2.60
2019-01-18T05:20:00.275Z,3.00
2019-01-18T05:22:47.202Z,3.13
2019-01-18T05:25:34.802Z,3.03
2019-01-18T05:28:21.611Z,3.03
2019-01-18T05:31:08.833Z,2.90
2019-01-18T05:33:55.999Z,3.13
2019-01-18T05:36:43.277Z,3.50
2019-01-18T05:39:30.422Z,2.67
2019-01-18T05:42:17.821Z,3.10
2019-01-18T05:45:05.707Z,2.83
2019-01-18T05:47:53.159Z,3.07
2019-01-18T05:50:40.310Z,2.10
2019-01-18T05:53:27.685Z,2.97
2019-01-18T05:56:15.268Z,5.47
2019-01-18T05:59:02.692Z,3.07
2019-01-18T06:01:49.599Z,3.20
2019-01-18T06:04:37.153Z,3.30
2019-01-18T06:07:23.983Z,2.93
2019-01-18T06:10:11.591Z,2.63
2019-01-18T06:12:59.323Z,2.57
2019-01-18T06:15:46.296Z,3.47
2019-01-18T06:18:33.817Z,3.60
2019-01-18T06:21:21.560Z,3.67
2019-01-18T06:24:09.957Z,3.00
2019-01-18T06:26:57.430Z,2.40
2019-01-18T06:29:44.520Z,3.17
2019-01-18T06:32:31.776Z,4.07
2019-01-18T06:35:19.068Z,3.30
2019-01-18T06:38:07.681Z,4.50
2019-01-18T06:40:58.802Z,3.53
2019-01-18T06:43:46.517Z,2.80
2019-01-18T06:46:33.823Z,3.40
2019-01-18T06:49:21.388Z,3.60
2019-01-18T06:52:09.069Z,3.80
2019-01-18T06:54:56.329Z,3.40
2019-01-18T06:57:43.910Z,3.67
2019-01-18T07:00:32.310Z,3.30
2019-01-18T07:03:19.566Z,3.90
2019-01-18T07:06:07.073Z,3.73
2019-01-18T07:08:54.091Z,3.33
2019-01-18T07:11:41.469Z,3.13
2019-01-18T07:14:33.293Z,3.53
2019-01-18T07:18:34.397Z,3.20
2019-01-18T07:20:12.920Z,2.90
2019-01-18T07:22:59.991Z,3.20
2019-01-18T07:25:48.043Z,3.00
2019-01-18T07:28:35.258Z,2.60
2019-01-18T07:31:22.894Z,4.03
2019-01-18T07:34:09.977Z,2.80
2019-01-18T07:36:57.537Z,3.10
2019-01-18T07:39:45.700Z,3.37
2019-01-18T07:42:32.683Z,3.50
2019-01-18T07:45:21.811Z,2.63
2019-01-18T07:48:09.841Z,2.70
2019-01-18T07:50:56.875Z,3.23
2019-01-18T07:53:44.497Z,3.87
2019-01-18T07:56:31.833Z,3.67
2019-01-18T07:59:19.490Z,3.37
2019-01-18T08:02:07.156Z,3.00
2019-01-18T08:04:54.826Z,3.90
2019-01-18T08:07:42.113Z,4.23
2019-01-18T08:10:30.827Z,2.80
2019-01-18T08:13:18.497Z,3.80
2019-01-18T08:16:05.707Z,3.30
2019-01-18T08:18:56.180Z,3.47
2019-01-18T08:21:53.821Z,3.70
2019-01-18T08:24:43.087Z,3.77
2019-01-18T08:27:31.055Z,3.10
2019-01-18T08:30:19.863Z,3.47
2019-01-18T08:33:08.488Z,3.60
2019-01-18T08:35:56.953Z,3.20
2019-01-18T08:38:47.907Z,3.10
2019-01-18T08:41:35.525Z,4.37
2019-01-18T08:44:23.283Z,3.27
2019-01-18T08:47:11.208Z,2.97
2019-01-18T08:49:58.563Z,3.13
2019-01-18T08:52:46.535Z,2.93
2019-01-18T08:55:33.419Z,2.27
2019-01-18T08:58:20.753Z,2.87
2019-01-18T09:01:13.607Z,3.17
2019-01-18T09:04:00.637Z,4.17
2019-01-18T09:06:52.430Z,3.00
2019-01-18T09:09:40.204Z,2.90
2019-01-18T09:12:27.504Z,4.20
2019-01-18T09:15:14.252Z,3.03
2019-01-18T09:18:01.383Z,3.07
2019-01-18T09:20:48.742Z,3.47
2019-01-18T09:23:35.687Z,3.20
2019-01-18T09:26:23.212Z,4.07
2019-01-18T09:29:10.681Z,4.40
2019-01-18T09:32:02.351Z,2.93
2019-01-18T09:34:49.721Z,2.30
2019-01-18T09:37:37.562Z,2.90
2019-01-18T09:40:25.915Z,3.37
2019-01-18T09:43:14.217Z,3.10
2019-01-18T09:46:02.570Z,3.43
2019-01-18T09:48:50.001Z,4.20
2019-01-18T09:51:38.109Z,3.87
2019-01-18T09:54:25.521Z,3.57
2019-01-18T09:57:18.340Z,4.20
2019-01-18T10:00:10.594Z,5.33
2019-01-18T10:03:00.152Z,3.20
2019-01-18T10:05:48.048Z,3.43
2019-01-18T10:08:35.753Z,5.03
2019-01-18T10:11:22.601Z,3.57
2019-01-18T10:14:11.448Z,3.70
2019-01-18T10:17:02.879Z,4.63
2019-01-18T10:19:54.303Z,5.03
2019-01-18T10:22:51.877Z,3.60
2019-01-18T10:25:43.949Z,3.43
2019-01-18T10:43:18.059Z,3.73
2019-01-18T10:46:23.176Z,3.23
2019-01-18T10:49:10.687Z,3.70
2019-01-18T10:51:59.214Z,2.63
2019-01-18T10:54:46.780Z,3.43
2019-01-18T10:57:34.309Z,3.47
2019-01-18T11:00:23.060Z,3.30
2019-01-18T11:03:10.746Z,3.50
2019-01-18T11:05:58.322Z,3.00
2019-01-18T11:08:45.894Z,3.10
2019-01-18T11:11:33.010Z,3.10
2019-01-18T11:14:20.464Z,3.27
2019-01-18T11:17:09.362Z,4.13
2019-01-18T11:19:56.540Z,3.40
2019-01-18T11:22:43.561Z,3.07
2019-01-18T11:25:31.930Z,3.63
2019-01-18T11:28:19.450Z,4.40
2019-01-18T11:31:07.288Z,3.37
2019-01-18T11:33:54.481Z,4.10
2019-01-18T11:36:44.680Z,4.00
2019-01-18T11:39:31.828Z,4.43
2019-01-18T11:42:19.336Z,3.73
2019-01-18T11:45:07.174Z,3.13
2019-01-18T11:47:55.225Z,3.20
2019-01-18T11:50:49.599Z,3.83
2019-01-18T11:53:37.169Z,3.87
2019-01-18T11:56:24.344Z,3.00
2019-01-18T11:59:12.038Z,2.57
2019-01-18T12:02:01.387Z,2.73
2019-01-18T12:04:49.129Z,3.17
2019-01-18T12:07:36.824Z,2.63
2019-01-18T12:10:29.582Z,2.00
2019-01-18T12:13:17.067Z,2.00
2019-01-18T12:16:04.311Z,1.97
2019-01-18T12:18:52.056Z,2.80
2019-01-18T12:21:39.836Z,1.83
2019-01-18T12:24:27.275Z,2.83
2019-01-18T12:27:14.827Z,2.70
2019-01-18T12:30:02.254Z,2.33
2019-01-18T12:32:49.496Z,3.07
2019-01-18T12:35:37.803Z,3.57
2019-01-18T12:38:25.499Z,3.30
2019-01-18T12:41:12.867Z,2.47
2019-01-18T12:44:00.068Z,4.40
2019-01-18T12:46:47.854Z,3.47
2019-01-18T12:49:35.238Z,3.37
2019-01-18T12:52:23.264Z,1.80
2019-01-18T12:55:11.830Z,2.20
2019-01-18T12:57:59.982Z,2.93
2019-01-18T13:00:47.337Z,3.00
2019-01-18T13:03:34.454Z,2.63
2019-01-18T13:06:21.875Z,2.77
2019-01-18T13:09:09.424Z,3.00
2019-01-18T13:11:56.902Z,3.10
2019-01-18T13:14:44.877Z,2.37
2019-01-18T13:17:31.819Z,2.30
2019-01-18T13:20:20.277Z,2.90
2019-01-18T13:23:08.641Z,2.37
2019-01-18T15:17:54.988Z,3.90
2019-01-18T15:20:42.927Z,4.30
2019-01-18T15:23:55.105Z,4.70
2019-01-18T15:26:42.658Z,4.90
2019-01-18T15:29:29.911Z,3.30
2019-01-18T15:32:17.223Z,3.50
2019-01-18T15:35:05.199Z,4.30
2019-01-18T15:37:52.755Z,4.40
2019-01-18T15:40:47.626Z,5.20
2019-01-18T15:43:35.075Z,4.83
2019-01-18T15:46:24.067Z,5.60
2019-01-18T15:49:11.197Z,5.27
2019-01-18T15:51:58.771Z,5.20
2019-01-18T15:54:45.774Z,5.80
2019-01-18T15:57:33.740Z,5.40
2019-01-18T16:00:31.401Z,5.80
2019-01-18T16:03:28.651Z,5.90
2019-01-18T16:06:16.150Z,5.13
2019-01-18T16:09:06.415Z,5.30
2019-01-18T16:11:55.210Z,5.90
2019-01-18T16:14:42.427Z,6.07
2019-01-18T16:17:52.978Z,4.93
2019-01-18T16:20:41.195Z,5.03
2019-01-18T16:23:28.590Z,6.33
2019-01-18T16:26:16.364Z,5.13
2019-01-18T16:29:05.510Z,5.13
2019-01-18T21:33:19.531Z,9.50
2019-01-18T21:36:31.421Z,8.50
2019-01-18T21:39:43.790Z,8.80
2019-01-18T21:42:42.266Z,12.03
2019-01-18T21:45:51.361Z,10.57
2019-01-18T21:48:57.765Z,6.73
2019-01-18T21:52:02.819Z,10.77
2019-01-18T21:55:03.861Z,11.00
2019-01-18T21:58:16.920Z,10.30
2019-01-18T22:01:32.232Z,8.63
2019-01-18T22:04:26.230Z,9.20
2019-01-18T22:07:24.710Z,9.87
2019-01-18T22:10:40.437Z,11.40
2019-01-18T22:13:47.199Z,10.93
2019-01-18T22:16:56.305Z,8.53
2019-01-18T22:19:53.415Z,4.70
2019-01-18T22:22:46.604Z,8.20
2019-01-18T22:26:11.168Z,11.30
2019-01-18T22:29:23.948Z,11.20
2019-01-18T22:32:38.050Z,6.73
2019-01-18T22:35:32.561Z,6.90
2019-01-18T22:38:30.044Z,11.10
2019-01-18T22:41:40.282Z,8.67
2019-01-18T22:44:34.332Z,8.33
2019-01-18T22:47:40.799Z,8.90
2019-01-18T22:50:47.027Z,9.80
2019-01-18T22:53:47.703Z,11.97
2019-01-18T22:56:54.026Z,12.57
2019-01-18T23:00:04.507Z,11.47
2019-01-18T23:02:55.486Z,11.07
2019-01-18T23:06:19.919Z,11.40
2019-01-18T23:09:20.552Z,11.47
2019-01-18T23:12:26.734Z,9.20
2019-01-18T23:15:31.695Z,10.37
2019-01-18T23:18:24.355Z,9.33
2019-01-18T23:21:25.367Z,8.80
2019-01-18T23:24:15.965Z,9.60
2019-01-18T23:27:29.142Z,6.47
2019-01-18T23:30:35.148Z,7.50
2019-01-18T23:33:44.671Z,6.10
2019-01-18T23:36:50.697Z,10.50
2019-01-18T23:40:15.017Z,6.10
2019-01-18T23:43:27.064Z,6.07
2019-01-18T23:46:28.059Z,8.20
2019-01-18T23:49:18.055Z,9.13
2019-01-18T23:52:33.467Z,4.53
2019-01-18T23:55:34.321Z,9.93
2019-01-18T23:58:36.684Z,8.10
